sensor_id;sensor_type;location;lat;lon;timestamp;pressure;altitude;pressure_sealevel;temperature;humidity
44297;BME280;51842;47.450;8.654;2023-05-22T00:00:43;95211.00;;;14.94;94.25
44297;BME280;51842;47.450;8.654;2023-05-22T00:03:09;95216.78;;;14.87;94.66
44297;BME280;51842;47.450;8.654;2023-05-22T00:05:35;95203.00;;;14.80;95.71
44297;BME280;51842;47.450;8.654;2023-05-22T00:08:06;95210.84;;;14.76;97.73
44297;BME280;51842;47.450;8.654;2023-05-22T00:10:37;95210.53;;;14.78;97.42
44297;BME280;51842;47.450;8.654;2023-05-22T00:13:03;95210.53;;;14.78;98.24
44297;BME280;51842;47.450;8.654;2023-05-22T00:15:30;95217.19;;;14.80;97.78
44297;BME280;51842;47.450;8.654;2023-05-22T00:17:56;95214.78;;;14.79;98.27
44297;BME280;51842;47.450;8.654;2023-05-22T00:20:22;95214.78;;;14.79;98.30
44297;BME280;51842;47.450;8.654;2023-05-22T00:22:48;95215.88;;;14.78;98.27
44297;BME280;51842;47.450;8.654;2023-05-22T00:25:18;95218.97;;;14.71;97.58
44297;BME280;51842;47.450;8.654;2023-05-22T00:27:46;95217.22;;;14.67;98.56
44297;BME280;51842;47.450;8.654;2023-05-22T00:30:12;95218.41;;;14.61;97.58
44297;BME280;51842;47.450;8.654;2023-05-22T00:32:39;95219.97;;;14.48;98.78
44297;BME280;51842;47.450;8.654;2023-05-22T00:35:05;95222.03;;;14.37;98.16
44297;BME280;51842;47.450;8.654;2023-05-22T00:37:31;95222.63;;;14.20;99.91
44297;BME280;51842;47.450;8.654;2023-05-22T00:39:57;95225.34;;;14.01;100.00
44297;BME280;51842;47.450;8.654;2023-05-22T00:42:23;95221.25;;;13.90;100.00
44297;BME280;51842;47.450;8.654;2023-05-22T00:44:49;95218.44;;;13.81;100.00
44297;BME280;51842;47.450;8.654;2023-05-22T00:47:15;95221.31;;;13.71;100.00
44297;BME280;51842;47.450;8.654;2023-05-22T00:49:42;95220.97;;;13.59;100.00
44297;BME280;51842;47.450;8.654;2023-05-22T00:52:09;95234.00;;;13.47;100.00
44297;BME280;51842;47.450;8.654;2023-05-22T00:54:36;95221.88;;;13.35;100.00
44297;BME280;51842;47.450;8.654;2023-05-22T00:57:03;95227.63;;;13.24;100.00
44297;BME280;51842;47.450;8.654;2023-05-22T00:59:30;95225.31;;;13.17;100.00
44297;BME280;51842;47.450;8.654;2023-05-22T01:01:57;95231.88;;;13.06;100.00
44297;BME280;51842;47.450;8.654;2023-05-22T01:04:24;95226.50;;;12.87;100.00
44297;BME280;51842;47.450;8.654;2023-05-22T01:06:50;95225.72;;;12.86;100.00
44297;BME280;51842;47.450;8.654;2023-05-22T01:09:16;95228.75;;;12.80;100.00
44297;BME280;51842;47.450;8.654;2023-05-22T01:11:50;95230.47;;;12.70;100.00
44297;BME280;51842;47.450;8.654;2023-05-22T01:14:58;95223.59;;;12.64;100.00
44297;BME280;51842;47.450;8.654;2023-05-22T01:20:35;95228.84;;;12.50;100.00
44297;BME280;51842;47.450;8.654;2023-05-22T01:29:54;95226.34;;;12.35;100.00
44297;BME280;51842;47.450;8.654;2023-05-22T01:32:27;95227.69;;;12.33;100.00
44297;BME280;51842;47.450;8.654;2023-05-22T01:34:58;95235.47;;;12.29;100.00
44297;BME280;51842;47.450;8.654;2023-05-22T01:37:26;95228.59;;;12.23;100.00
44297;BME280;51842;47.450;8.654;2023-05-22T01:39:54;95229.41;;;12.23;100.00
44297;BME280;51842;47.450;8.654;2023-05-22T01:42:20;95229.09;;;12.25;100.00
44297;BME280;51842;47.450;8.654;2023-05-22T01:44:49;95233.94;;;12.23;100.00
44297;BME280;51842;47.450;8.654;2023-05-22T01:47:15;95237.44;;;12.18;100.00
44297;BME280;51842;47.450;8.654;2023-05-22T01:49:43;95235.34;;;12.15;100.00
44297;BME280;51842;47.450;8.654;2023-05-22T01:52:38;95239.44;;;12.08;100.00
44297;BME280;51842;47.450;8.654;2023-05-22T01:55:14;95228.78;;;12.02;100.00
44297;BME280;51842;47.450;8.654;2023-05-22T01:59:08;95231.09;;;12.14;100.00
44297;BME280;51842;47.450;8.654;2023-05-22T02:01:01;95234.28;;;12.16;100.00
44297;BME280;51842;47.450;8.654;2023-05-22T02:03:33;95222.56;;;12.12;100.00
44297;BME280;51842;47.450;8.654;2023-05-22T02:06:05;95227.44;;;12.05;100.00
44297;BME280;51842;47.450;8.654;2023-05-22T02:08:34;95224.53;;;12.01;100.00
44297;BME280;51842;47.450;8.654;2023-05-22T02:11:04;95231.22;;;11.99;100.00
44297;BME280;51842;47.450;8.654;2023-05-22T02:13:32;95220.84;;;11.97;100.00
44297;BME280;51842;47.450;8.654;2023-05-22T02:16:00;95225.09;;;11.98;100.00
44297;BME280;51842;47.450;8.654;2023-05-22T02:18:29;95232.09;;;11.94;100.00
44297;BME280;51842;47.450;8.654;2023-05-22T02:20:56;95230.72;;;11.97;100.00
44297;BME280;51842;47.450;8.654;2023-05-22T02:23:23;95233.09;;;11.98;100.00
44297;BME280;51842;47.450;8.654;2023-05-22T02:25:49;95228.38;;;11.90;100.00
44297;BME280;51842;47.450;8.654;2023-05-22T02:28:15;95230.25;;;11.90;100.00
44297;BME280;51842;47.450;8.654;2023-05-22T02:30:40;95227.91;;;11.78;100.00
44297;BME280;51842;47.450;8.654;2023-05-22T02:33:06;95215.94;;;11.75;100.00
44297;BME280;51842;47.450;8.654;2023-05-22T02:35:34;95221.75;;;11.82;100.00
44297;BME280;51842;47.450;8.654;2023-05-22T02:38:00;95215.88;;;11.80;100.00
44297;BME280;51842;47.450;8.654;2023-05-22T02:40:27;95221.78;;;11.77;100.00
44297;BME280;51842;47.450;8.654;2023-05-22T02:42:52;95218.84;;;11.79;100.00
44297;BME280;51842;47.450;8.654;2023-05-22T02:45:18;95224.75;;;11.76;100.00
44297;BME280;51842;47.450;8.654;2023-05-22T02:47:44;95226.09;;;11.73;100.00
44297;BME280;51842;47.450;8.654;2023-05-22T02:50:10;95226.09;;;11.73;100.00
44297;BME280;51842;47.450;8.654;2023-05-22T02:52:35;95222.44;;;11.64;100.00
44297;BME280;51842;47.450;8.654;2023-05-22T02:55:04;95232.56;;;11.67;100.00
44297;BME280;51842;47.450;8.654;2023-05-22T02:57:30;95227.25;;;11.62;100.00
44297;BME280;51842;47.450;8.654;2023-05-22T02:59:56;95221.41;;;11.60;100.00
44297;BME280;51842;47.450;8.654;2023-05-22T03:02:24;95224.09;;;11.55;100.00
44297;BME280;51842;47.450;8.654;2023-05-22T03:04:53;95224.66;;;11.52;100.00
44297;BME280;51842;47.450;8.654;2023-05-22T03:07:18;95226.84;;;11.45;100.00
44297;BME280;51842;47.450;8.654;2023-05-22T03:09:45;95226.06;;;11.44;100.00
44297;BME280;51842;47.450;8.654;2023-05-22T03:12:12;95225.84;;;11.41;100.00
44297;BME280;51842;47.450;8.654;2023-05-22T03:14:38;95222.66;;;11.33;100.00
44297;BME280;51842;47.450;8.654;2023-05-22T03:17:04;95218.94;;;11.34;100.00
44297;BME280;51842;47.450;8.654;2023-05-22T03:19:29;95219.72;;;11.35;100.00
44297;BME280;51842;47.450;8.654;2023-05-22T03:21:55;95226.88;;;11.40;100.00
44297;BME280;51842;47.450;8.654;2023-05-22T03:24:22;95223.66;;;11.43;100.00
44297;BME280;51842;47.450;8.654;2023-05-22T03:26:47;95223.13;;;11.46;100.00
44297;BME280;51842;47.450;8.654;2023-05-22T03:29:13;95218.25;;;11.53;100.00
44297;BME280;51842;47.450;8.654;2023-05-22T03:31:39;95218.25;;;11.53;100.00
44297;BME280;51842;47.450;8.654;2023-05-22T03:34:05;95213.47;;;11.50;100.00
44297;BME280;51842;47.450;8.654;2023-05-22T03:36:31;95219.91;;;11.44;100.00
44297;BME280;51842;47.450;8.654;2023-05-22T03:39:02;95217.31;;;11.39;100.00
44297;BME280;51842;47.450;8.654;2023-05-22T03:41:28;95218.66;;;11.36;100.00
44297;BME280;51842;47.450;8.654;2023-05-22T03:43:54;95219.22;;;11.28;100.00
44297;BME280;51842;47.450;8.654;2023-05-22T03:46:19;95216.06;;;11.26;100.00
44297;BME280;51842;47.450;8.654;2023-05-22T03:48:45;95225.38;;;11.28;100.00
44297;BME280;51842;47.450;8.654;2023-05-22T03:51:11;95220.06;;;11.23;100.00
44297;BME280;51842;47.450;8.654;2023-05-22T03:53:37;95221.16;;;11.22;100.00
44297;BME280;51842;47.450;8.654;2023-05-22T03:56:03;95219.84;;;11.15;100.00
44297;BME280;51842;47.450;8.654;2023-05-22T03:58:29;95220.69;;;11.10;100.00
44297;BME280;51842;47.450;8.654;2023-05-22T04:00:55;95224.94;;;11.11;100.00
44297;BME280;51842;47.450;8.654;2023-05-22T04:03:27;95229.97;;;11.18;100.00
44297;BME280;51842;47.450;8.654;2023-05-22T04:05:53;95227.31;;;11.18;100.00
44297;BME280;51842;47.450;8.654;2023-05-22T04:08:21;95230.25;;;11.16;100.00
44297;BME280;51842;47.450;8.654;2023-05-22T04:10:47;95236.09;;;11.18;100.00
44297;BME280;51842;47.450;8.654;2023-05-22T04:13:15;95239.84;;;11.17;100.00
44297;BME280;51842;47.450;8.654;2023-05-22T04:15:41;95240.91;;;11.16;100.00
44297;BME280;51842;47.450;8.654;2023-05-22T04:18:10;95246.72;;;11.23;100.00
44297;BME280;51842;47.450;8.654;2023-05-22T04:20:37;95246.72;;;11.28;100.00
44297;BME280;51842;47.450;8.654;2023-05-22T04:23:02;95247.44;;;11.34;100.00
44297;BME280;51842;47.450;8.654;2023-05-22T04:25:29;95248.78;;;11.37;100.00
44297;BME280;51842;47.450;8.654;2023-05-22T04:27:56;95252.50;;;11.41;100.00
44297;BME280;51842;47.450;8.654;2023-05-22T04:30:23;95253.53;;;11.45;100.00
44297;BME280;51842;47.450;8.654;2023-05-22T04:32:50;95261.97;;;11.57;100.00
44297;BME280;51842;47.450;8.654;2023-05-22T04:35:15;95265.56;;;11.76;100.00
44297;BME280;51842;47.450;8.654;2023-05-22T04:37:43;95272.06;;;11.99;100.00
44297;BME280;51842;47.450;8.654;2023-05-22T04:40:11;95269.00;;;12.16;100.00
44297;BME280;51842;47.450;8.654;2023-05-22T04:42:40;95276.03;;;12.31;100.00
44297;BME280;51842;47.450;8.654;2023-05-22T04:45:08;95277.19;;;12.49;100.00
44297;BME280;51842;47.450;8.654;2023-05-22T04:47:34;95278.63;;;12.65;100.00
44297;BME280;51842;47.450;8.654;2023-05-22T04:50:03;95279.44;;;12.85;100.00
44297;BME280;51842;47.450;8.654;2023-05-22T04:52:29;95285.66;;;13.04;100.00
44297;BME280;51842;47.450;8.654;2023-05-22T04:54:54;95283.09;;;13.13;100.00
44297;BME280;51842;47.450;8.654;2023-05-22T04:57:21;95284.94;;;13.17;100.00
44297;BME280;51842;47.450;8.654;2023-05-22T04:59:49;95282.31;;;13.36;100.00
44297;BME280;51842;47.450;8.654;2023-05-22T05:02:16;95282.38;;;13.50;100.00
44297;BME280;51842;47.450;8.654;2023-05-22T05:04:42;95283.97;;;13.51;100.00
44297;BME280;51842;47.450;8.654;2023-05-22T05:07:08;95287.97;;;13.54;100.00
44297;BME280;51842;47.450;8.654;2023-05-22T05:09:33;95282.81;;;13.57;100.00
44297;BME280;51842;47.450;8.654;2023-05-22T05:12:00;95280.41;;;13.75;100.00
44297;BME280;51842;47.450;8.654;2023-05-22T05:14:25;95286.03;;;13.92;100.00
44297;BME280;51842;47.450;8.654;2023-05-22T05:16:51;95277.50;;;14.04;100.00
44297;BME280;51842;47.450;8.654;2023-05-22T05:19:18;95284.09;;;14.11;100.00
44297;BME280;51842;47.450;8.654;2023-05-22T05:21:47;95278.94;;;14.15;100.00
44297;BME280;51842;47.450;8.654;2023-05-22T05:24:15;95287.19;;;14.19;100.00
44297;BME280;51842;47.450;8.654;2023-05-22T05:26:42;95285.41;;;14.28;100.00
44297;BME280;51842;47.450;8.654;2023-05-22T05:29:08;95293.38;;;14.33;100.00
44297;BME280;51842;47.450;8.654;2023-05-22T05:31:34;95290.38;;;14.34;100.00
44297;BME280;51842;47.450;8.654;2023-05-22T05:33:59;95285.03;;;14.34;100.00
44297;BME280;51842;47.450;8.654;2023-05-22T05:36:25;95285.34;;;14.33;99.01
44297;BME280;51842;47.450;8.654;2023-05-22T05:38:51;95290.56;;;14.24;99.87
44297;BME280;51842;47.450;8.654;2023-05-22T05:41:18;95287.50;;;14.31;99.69
44297;BME280;51842;47.450;8.654;2023-05-22T05:43:44;95290.59;;;14.38;99.73
44297;BME280;51842;47.450;8.654;2023-05-22T05:46:10;95291.09;;;14.40;100.00
44297;BME280;51842;47.450;8.654;2023-05-22T05:48:35;95291.38;;;14.57;100.00
44297;BME280;51842;47.450;8.654;2023-05-22T05:51:01;95291.84;;;14.87;100.00
44297;BME280;51842;47.450;8.654;2023-05-22T05:53:27;95292.81;;;15.19;97.69
44297;BME280;51842;47.450;8.654;2023-05-22T05:55:53;95294.63;;;15.60;95.81
44297;BME280;51842;47.450;8.654;2023-05-22T05:58:19;95287.03;;;15.98;91.73
44297;BME280;51842;47.450;8.654;2023-05-22T06:00:44;95293.91;;;16.35;89.56
44297;BME280;51842;47.450;8.654;2023-05-22T06:03:10;95299.47;;;16.70;86.54
44297;BME280;51842;47.450;8.654;2023-05-22T06:05:36;95299.09;;;16.85;81.01
44297;BME280;51842;47.450;8.654;2023-05-22T06:08:02;95309.75;;;16.99;80.27
44297;BME280;51842;47.450;8.654;2023-05-22T06:10:30;95307.84;;;17.00;78.75
44297;BME280;51842;47.450;8.654;2023-05-22T06:12:56;95312.28;;;17.04;80.49
44297;BME280;51842;47.450;8.654;2023-05-22T06:15:22;95319.28;;;17.14;79.60
44297;BME280;51842;47.450;8.654;2023-05-22T06:17:48;95319.19;;;17.37;79.56
44297;BME280;51842;47.450;8.654;2023-05-22T06:20:13;95314.47;;;17.68;78.22
44297;BME280;51842;47.450;8.654;2023-05-22T06:22:40;95312.31;;;18.05;75.60
44297;BME280;51842;47.450;8.654;2023-05-22T06:25:06;95319.38;;;18.44;75.69
44297;BME280;51842;47.450;8.654;2023-05-22T06:27:32;95313.25;;;18.82;72.36
44297;BME280;51842;47.450;8.654;2023-05-22T06:29:57;95310.25;;;19.13;70.95
44297;BME280;51842;47.450;8.654;2023-05-22T06:32:24;95312.16;;;19.42;68.72
44297;BME280;51842;47.450;8.654;2023-05-22T06:34:50;95311.03;;;19.73;67.58
44297;BME280;51842;47.450;8.654;2023-05-22T06:37:16;95314.59;;;19.86;65.64
44297;BME280;51842;47.450;8.654;2023-05-22T06:39:42;95302.53;;;20.04;65.39
44297;BME280;51842;47.450;8.654;2023-05-22T06:42:07;95310.50;;;20.22;63.29
44297;BME280;51842;47.450;8.654;2023-05-22T06:44:33;95302.44;;;20.46;62.47
44297;BME280;51842;47.450;8.654;2023-05-22T06:46:59;95307.16;;;20.70;62.17
44297;BME280;51842;47.450;8.654;2023-05-22T06:49:24;95312.72;;;20.98;60.78
44297;BME280;51842;47.450;8.654;2023-05-22T06:51:50;95305.84;;;21.25;59.53
44297;BME280;51842;47.450;8.654;2023-05-22T06:54:16;95311.16;;;21.34;58.23
44297;BME280;51842;47.450;8.654;2023-05-22T06:56:44;95298.75;;;21.45;58.27
44297;BME280;51842;47.450;8.654;2023-05-22T06:59:11;95306.59;;;21.87;57.38
44297;BME280;51842;47.450;8.654;2023-05-22T07:01:37;95308.88;;;22.13;56.64
44297;BME280;51842;47.450;8.654;2023-05-22T07:04:03;95303.41;;;22.26;55.69
44297;BME280;51842;47.450;8.654;2023-05-22T07:06:34;95320.78;;;22.53;55.05
44297;BME280;51842;47.450;8.654;2023-05-22T07:09:04;95311.34;;;22.62;53.88
44297;BME280;51842;47.450;8.654;2023-05-22T07:11:30;95317.53;;;22.91;54.03
44297;BME280;51842;47.450;8.654;2023-05-22T07:13:56;95317.75;;;22.98;53.48
44297;BME280;51842;47.450;8.654;2023-05-22T07:16:22;95315.19;;;23.21;53.34
44297;BME280;51842;47.450;8.654;2023-05-22T07:18:48;95316.41;;;23.24;52.01
44297;BME280;51842;47.450;8.654;2023-05-22T07:21:14;95316.88;;;23.61;52.20
44297;BME280;51842;47.450;8.654;2023-05-22T07:23:40;95316.22;;;23.84;51.53
44297;BME280;51842;47.450;8.654;2023-05-22T07:26:07;95318.03;;;23.95;50.37
44297;BME280;51842;47.450;8.654;2023-05-22T07:28:32;95319.22;;;24.14;50.22
44297;BME280;51842;47.450;8.654;2023-05-22T07:30:58;95313.31;;;24.12;49.05
44297;BME280;51842;47.450;8.654;2023-05-22T07:33:25;95313.69;;;24.30;49.37
44297;BME280;51842;47.450;8.654;2023-05-22T07:35:50;95309.75;;;24.27;48.43
44297;BME280;51842;47.450;8.654;2023-05-22T07:38:17;95304.75;;;24.49;48.34
44297;BME280;51842;47.450;8.654;2023-05-22T07:40:42;95304.41;;;24.73;49.25
44297;BME280;51842;47.450;8.654;2023-05-22T07:43:08;95298.84;;;24.89;47.92
44297;BME280;51842;47.450;8.654;2023-05-22T07:45:34;95302.09;;;25.18;48.01
44297;BME280;51842;47.450;8.654;2023-05-22T07:48:00;95304.13;;;25.24;46.50
44297;BME280;51842;47.450;8.654;2023-05-22T07:50:28;95305.00;;;25.32;46.66
44297;BME280;51842;47.450;8.654;2023-05-22T07:52:55;95294.97;;;25.36;46.38
44297;BME280;51842;47.450;8.654;2023-05-22T07:55:21;95299.06;;;25.49;46.63
44297;BME280;51842;47.450;8.654;2023-05-22T07:57:47;95293.44;;;25.65;44.63
44297;BME280;51842;47.450;8.654;2023-05-22T08:00:13;95299.25;;;25.90;45.06
44297;BME280;51842;47.450;8.654;2023-05-22T08:02:40;95296.91;;;25.89;45.61
44297;BME280;51842;47.450;8.654;2023-05-22T08:05:07;95299.69;;;26.26;44.30
44297;BME280;51842;47.450;8.654;2023-05-22T08:07:33;95305.06;;;26.49;44.50
44297;BME280;51842;47.450;8.654;2023-05-22T08:10:06;95298.63;;;26.68;43.38
44297;BME280;51842;47.450;8.654;2023-05-22T08:12:32;95303.00;;;26.76;41.88
44297;BME280;51842;47.450;8.654;2023-05-22T08:14:58;95292.53;;;26.85;42.88
44297;BME280;51842;47.450;8.654;2023-05-22T08:17:23;95293.91;;;27.06;41.86
44297;BME280;51842;47.450;8.654;2023-05-22T08:19:49;95292.63;;;27.37;40.62
44297;BME280;51842;47.450;8.654;2023-05-22T08:22:15;95294.34;;;27.59;41.15
44297;BME280;51842;47.450;8.654;2023-05-22T08:24:41;95295.59;;;27.73;39.18
44297;BME280;51842;47.450;8.654;2023-05-22T08:27:06;95293.56;;;27.62;38.87
44297;BME280;51842;47.450;8.654;2023-05-22T08:29:32;95287.31;;;27.58;39.27
44297;BME280;51842;47.450;8.654;2023-05-22T08:34:24;95281.59;;;27.81;38.95
44297;BME280;51842;47.450;8.654;2023-05-22T08:36:50;95285.31;;;28.21;38.85
44297;BME280;51842;47.450;8.654;2023-05-22T08:39:16;95283.88;;;28.49;38.35
44297;BME280;51842;47.450;8.654;2023-05-22T08:41:43;95291.34;;;28.73;37.41
44297;BME280;51842;47.450;8.654;2023-05-22T08:44:10;95286.25;;;28.79;37.13
44297;BME280;51842;47.450;8.654;2023-05-22T08:46:41;95282.78;;;29.07;36.32
44297;BME280;51842;47.450;8.654;2023-05-22T08:49:09;95287.50;;;29.10;37.42
44297;BME280;51842;47.450;8.654;2023-05-22T08:51:41;95287.50;;;29.10;36.30
44297;BME280;51842;47.450;8.654;2023-05-22T08:54:10;95285.94;;;29.05;35.57
44297;BME280;51842;47.450;8.654;2023-05-22T08:56:37;95285.16;;;29.12;36.49
44297;BME280;51842;47.450;8.654;2023-05-22T08:59:05;95282.41;;;29.12;35.66
44297;BME280;51842;47.450;8.654;2023-05-22T09:01:32;95283.91;;;28.85;36.51
44297;BME280;51842;47.450;8.654;2023-05-22T09:04:02;95282.78;;;29.28;35.80
44297;BME280;51842;47.450;8.654;2023-05-22T09:06:28;95280.03;;;29.46;35.52
44297;BME280;51842;47.450;8.654;2023-05-22T09:08:58;95285.53;;;29.28;35.38
44297;BME280;51842;47.450;8.654;2023-05-22T09:11:24;95289.06;;;29.68;35.66
44297;BME280;51842;47.450;8.654;2023-05-22T09:13:50;95287.34;;;30.10;34.14
44297;BME280;51842;47.450;8.654;2023-05-22T09:16:18;95285.50;;;29.64;34.29
44297;BME280;51842;47.450;8.654;2023-05-22T09:18:44;95274.16;;;29.62;34.67
44297;BME280;51842;47.450;8.654;2023-05-22T09:21:12;95282.38;;;29.73;34.78
44297;BME280;51842;47.450;8.654;2023-05-22T09:23:39;95270.97;;;29.82;34.69
44297;BME280;51842;47.450;8.654;2023-05-22T09:26:05;95276.69;;;30.30;34.79
44297;BME280;51842;47.450;8.654;2023-05-22T09:28:36;95278.06;;;30.78;33.97
44297;BME280;51842;47.450;8.654;2023-05-22T09:31:03;95284.31;;;30.71;32.85
44297;BME280;51842;47.450;8.654;2023-05-22T09:33:29;95275.41;;;30.56;32.11
44297;BME280;51842;47.450;8.654;2023-05-22T09:35:57;95276.34;;;30.25;32.94
44297;BME280;51842;47.450;8.654;2023-05-22T09:38:29;95273.16;;;30.30;33.08
44297;BME280;51842;47.450;8.654;2023-05-22T09:40:56;95285.63;;;30.56;32.23
44297;BME280;51842;47.450;8.654;2023-05-22T09:43:23;95277.25;;;30.74;32.25
44297;BME280;51842;47.450;8.654;2023-05-22T09:45:59;95275.59;;;30.94;32.55
44297;BME280;51842;47.450;8.654;2023-05-22T09:48:25;95272.53;;;31.33;31.93
44297;BME280;51842;47.450;8.654;2023-05-22T09:50:53;95271.16;;;31.56;32.16
44297;BME280;51842;47.450;8.654;2023-05-22T09:53:26;95271.78;;;32.09;31.07
44297;BME280;51842;47.450;8.654;2023-05-22T09:55:55;95275.13;;;32.27;29.49
44297;BME280;51842;47.450;8.654;2023-05-22T09:58:26;95265.88;;;32.44;29.42
44297;BME280;51842;47.450;8.654;2023-05-22T10:00:55;95266.13;;;32.23;29.91
44297;BME280;51842;47.450;8.654;2023-05-22T10:03:24;95272.75;;;31.95;29.19
44297;BME280;51842;47.450;8.654;2023-05-22T10:05:54;95265.16;;;32.06;29.13
44297;BME280;51842;47.450;8.654;2023-05-22T10:08:26;95268.78;;;31.96;29.70
44297;BME280;51842;47.450;8.654;2023-05-22T10:10:52;95273.38;;;32.10;29.88
44297;BME280;51842;47.450;8.654;2023-05-22T10:13:19;95257.84;;;32.23;29.31
44297;BME280;51842;47.450;8.654;2023-05-22T10:15:49;95253.72;;;32.08;29.27
44297;BME280;51842;47.450;8.654;2023-05-22T10:18:16;95260.50;;;32.30;28.84
44297;BME280;51842;47.450;8.654;2023-05-22T10:20:43;95255.22;;;32.12;29.00
44297;BME280;51842;47.450;8.654;2023-05-22T10:23:09;95254.09;;;32.10;29.57
44297;BME280;51842;47.450;8.654;2023-05-22T10:25:39;95248.41;;;32.55;29.22
44297;BME280;51842;47.450;8.654;2023-05-22T10:28:07;95251.75;;;32.69;28.88
44297;BME280;51842;47.450;8.654;2023-05-22T10:31:03;95245.31;;;33.07;28.58
44297;BME280;51842;47.450;8.654;2023-05-22T10:33:42;95242.28;;;33.21;28.29
44297;BME280;51842;47.450;8.654;2023-05-22T10:42:29;95235.56;;;33.69;27.74
44297;BME280;51842;47.450;8.654;2023-05-22T10:44:55;95237.31;;;33.36;27.61
44297;BME280;51842;47.450;8.654;2023-05-22T10:47:21;95234.97;;;32.84;28.48
44297;BME280;51842;47.450;8.654;2023-05-22T10:49:47;95229.59;;;32.77;28.95
44297;BME280;51842;47.450;8.654;2023-05-22T10:52:15;95228.75;;;33.07;28.48
44297;BME280;51842;47.450;8.654;2023-05-22T10:54:45;95222.97;;;33.21;27.92
44297;BME280;51842;47.450;8.654;2023-05-22T10:57:17;95221.84;;;33.18;28.14
44297;BME280;51842;47.450;8.654;2023-05-22T10:59:46;95214.25;;;33.46;28.94
44297;BME280;51842;47.450;8.654;2023-05-22T11:02:20;95218.16;;;33.72;27.81
44297;BME280;51842;47.450;8.654;2023-05-22T11:04:46;95223.69;;;33.92;27.57
44297;BME280;51842;47.450;8.654;2023-05-22T11:07:12;95214.94;;;34.34;26.80
44297;BME280;51842;47.450;8.654;2023-05-22T11:09:46;95213.44;;;34.49;26.42
44297;BME280;51842;47.450;8.654;2023-05-22T11:12:19;95214.38;;;34.95;26.31
44297;BME280;51842;47.450;8.654;2023-05-22T11:15:08;95211.34;;;35.22;25.03
44297;BME280;51842;47.450;8.654;2023-05-22T11:17:46;95202.88;;;34.96;25.85
44297;BME280;51842;47.450;8.654;2023-05-22T11:20:23;95204.28;;;35.05;25.44
44297;BME280;51842;47.450;8.654;2023-05-22T11:23:02;95200.69;;;35.37;26.41
44297;BME280;51842;47.450;8.654;2023-05-22T11:25:33;95203.13;;;35.35;26.72
44297;BME280;51842;47.450;8.654;2023-05-22T11:28:02;95199.66;;;35.31;26.25
44297;BME280;51842;47.450;8.654;2023-05-22T11:30:29;95206.22;;;35.37;25.55
44297;BME280;51842;47.450;8.654;2023-05-22T11:32:59;95190.31;;;34.75;25.31
44297;BME280;51842;47.450;8.654;2023-05-22T11:35:25;95195.94;;;34.72;26.39
44297;BME280;51842;47.450;8.654;2023-05-22T11:37:53;95195.25;;;35.00;26.00
44297;BME280;51842;47.450;8.654;2023-05-22T11:40:22;95192.28;;;35.40;25.51
44297;BME280;51842;47.450;8.654;2023-05-22T11:42:52;95199.00;;;35.27;24.31
44297;BME280;51842;47.450;8.654;2023-05-22T11:45:18;95198.06;;;35.17;25.80
44297;BME280;51842;47.450;8.654;2023-05-22T11:47:44;95190.25;;;34.95;25.66
44297;BME280;51842;47.450;8.654;2023-05-22T11:50:11;95190.88;;;35.03;25.28
44297;BME280;51842;47.450;8.654;2023-05-22T11:52:40;95193.03;;;35.12;26.23
44297;BME280;51842;47.450;8.654;2023-05-22T11:55:08;95186.06;;;35.07;25.76
44297;BME280;51842;47.450;8.654;2023-05-22T11:57:36;95191.47;;;34.94;26.20
44297;BME280;51842;47.450;8.654;2023-05-22T12:00:05;95181.69;;;34.90;25.85
44297;BME280;51842;47.450;8.654;2023-05-22T12:02:33;95185.41;;;34.67;27.38
44297;BME280;51842;47.450;8.654;2023-05-22T12:04:59;95195.22;;;35.04;25.29
44297;BME280;51842;47.450;8.654;2023-05-22T12:07:25;95190.25;;;35.28;25.03
44297;BME280;51842;47.450;8.654;2023-05-22T12:09:56;95181.94;;;35.74;24.51
44297;BME280;51842;47.450;8.654;2023-05-22T12:12:23;95175.53;;;35.77;24.26
44297;BME280;51842;47.450;8.654;2023-05-22T12:14:49;95170.75;;;36.19;23.99
44297;BME280;51842;47.450;8.654;2023-05-22T12:17:17;95172.69;;;35.93;23.61
44297;BME280;51842;47.450;8.654;2023-05-22T12:19:44;95177.44;;;35.34;23.85
44297;BME280;51842;47.450;8.654;2023-05-22T12:22:11;95177.41;;;35.05;25.10
44297;BME280;51842;47.450;8.654;2023-05-22T12:24:43;95181.84;;;35.32;24.27
44297;BME280;51842;47.450;8.654;2023-05-22T12:27:13;95172.66;;;35.51;23.88
44297;BME280;51842;47.450;8.654;2023-05-22T12:29:41;95179.41;;;35.79;23.31
44297;BME280;51842;47.450;8.654;2023-05-22T12:32:11;95161.88;;;36.11;22.80
44297;BME280;51842;47.450;8.654;2023-05-22T12:34:46;95172.69;;;35.93;23.41
44297;BME280;51842;47.450;8.654;2023-05-22T12:37:22;95167.78;;;36.26;22.75
44297;BME280;51842;47.450;8.654;2023-05-22T12:40:08;95170.25;;;36.63;22.21
44297;BME280;51842;47.450;8.654;2023-05-22T12:42:34;95161.56;;;36.48;22.89
44297;BME280;51842;47.450;8.654;2023-05-22T12:45:00;95168.00;;;36.45;22.07
44297;BME280;51842;47.450;8.654;2023-05-22T12:47:26;95160.91;;;36.44;22.16
44297;BME280;51842;47.450;8.654;2023-05-22T12:49:52;95172.78;;;36.70;21.43
44297;BME280;51842;47.450;8.654;2023-05-22T12:52:18;95163.25;;;36.71;21.37
44297;BME280;51842;47.450;8.654;2023-05-22T12:54:43;95165.34;;;36.92;21.50
44297;BME280;51842;47.450;8.654;2023-05-22T12:57:09;95163.16;;;36.74;21.00
44297;BME280;51842;47.450;8.654;2023-05-22T12:59:35;95158.94;;;36.57;21.01
44297;BME280;51842;47.450;8.654;2023-05-22T13:02:04;95158.72;;;36.64;22.45
44297;BME280;51842;47.450;8.654;2023-05-22T13:04:30;95154.25;;;36.92;22.21
44297;BME280;51842;47.450;8.654;2023-05-22T13:06:56;95154.97;;;36.58;22.03
44297;BME280;51842;47.450;8.654;2023-05-22T13:09:22;95153.59;;;36.37;22.25
44297;BME280;51842;47.450;8.654;2023-05-22T13:11:48;95153.59;;;36.24;21.48
44297;BME280;51842;47.450;8.654;2023-05-22T13:14:16;95151.34;;;36.19;21.95
44297;BME280;51842;47.450;8.654;2023-05-22T13:16:42;95148.56;;;36.06;22.49
44297;BME280;51842;47.450;8.654;2023-05-22T13:19:08;95149.56;;;36.12;22.81